Time;durP1;ratioP1;P1;durP2;ratioP2;P2;SDS_P1;SDS_P2;PMS_P1;PMS_P2;Temp;Humidity;BMP_temperature;BMP_pressure;BME280_temperature;BME280_humidity;BME280_pressure;Samples;Min_cycle;Max_cycle;Signal;HPM_P1;HPM_P2
2021/07/27 00:00:35;;;;;;;3.15;2.30;;;15.60;91.30;;;;;;4962264;28;20037;-76
2021/07/27 00:03:01;;;;;;;3.15;1.92;;;15.60;91.20;;;;;;4963431;28;20505;-76
2021/07/27 00:05:27;;;;;;;7.07;2.10;;;15.50;91.40;;;;;;4964269;28;20054;-77
2021/07/27 00:07:53;;;;;;;4.53;2.00;;;15.50;91.60;;;;;;4960241;28;20030;-77
2021/07/27 00:10:20;;;;;;;2.50;1.73;;;15.50;91.20;;;;;;4963995;28;20575;-77
2021/07/27 00:12:46;;;;;;;2.15;1.95;;;15.50;91.00;;;;;;4952281;28;21953;-76
2021/07/27 00:15:12;;;;;;;2.42;1.83;;;15.40;91.20;;;;;;4959819;28;20026;-76
2021/07/27 00:17:39;;;;;;;2.47;1.98;;;15.50;91.10;;;;;;4968462;28;20373;-77
2021/07/27 00:20:05;;;;;;;3.75;1.90;;;15.50;91.10;;;;;;4967917;28;20019;-76
2021/07/27 00:22:31;;;;;;;5.78;2.05;;;15.60;91.10;;;;;;4965857;28;20118;-76
2021/07/27 00:25:00;;;;;;;1.77;1.65;;;15.50;91.00;;;;;;4969601;28;20094;-76
2021/07/27 00:27:27;;;;;;;2.75;1.90;;;15.60;91.00;;;;;;4966817;28;20034;-76
2021/07/27 00:29:52;;;;;;;2.40;2.08;;;15.50;91.10;;;;;;4961128;28;20031;-76
2021/07/27 00:32:18;;;;;;;2.08;1.70;;;15.40;91.20;;;;;;4941359;28;20035;-77
2021/07/27 00:34:44;;;;;;;3.97;1.88;;;15.40;91.20;;;;;;4946367;28;20037;-76
2021/07/27 00:37:16;;;;;;;2.50;2.08;;;15.50;91.10;;;;;;4943237;28;20031;-77
2021/07/27 00:39:43;;;;;;;3.08;1.88;;;15.50;91.00;;;;;;4941894;28;20729;-77
2021/07/27 00:42:09;;;;;;;1.90;1.70;;;15.50;91.00;;;;;;4944315;28;20031;-76
2021/07/27 00:44:35;;;;;;;2.33;1.98;;;15.40;90.90;;;;;;4957639;28;20051;-77
2021/07/27 00:47:00;;;;;;;3.92;2.20;;;15.30;91.20;;;;;;4944161;28;20058;-76
2021/07/27 00:49:26;;;;;;;2.50;2.00;;;15.30;91.00;;;;;;4946069;28;20397;-77
2021/07/27 00:51:52;;;;;;;3.70;1.98;;;15.30;91.30;;;;;;4939719;28;20046;-77
2021/07/27 00:54:18;;;;;;;3.95;2.20;;;15.20;91.40;;;;;;4949777;28;20146;-77
2021/07/27 00:56:43;;;;;;;4.25;2.30;;;15.30;91.20;;;;;;4947588;28;20123;-76
2021/07/27 00:59:09;;;;;;;3.50;2.33;;;15.30;91.30;;;;;;4944574;28;20027;-77
2021/07/27 01:01:35;;;;;;;4.18;1.90;;;15.30;91.30;;;;;;4950058;28;20041;-77
2021/07/27 01:04:01;;;;;;;3.33;2.20;;;15.40;91.40;;;;;;4955821;28;20517;-76
2021/07/27 01:06:27;;;;;;;3.38;1.88;;;15.20;91.80;;;;;;4953808;28;20034;-76
2021/07/27 01:08:53;;;;;;;5.10;2.53;;;15.30;91.80;;;;;;4956689;28;20504;-77
2021/07/27 01:11:23;;;;;;;4.53;2.40;;;15.20;91.50;;;;;;4957307;28;20074;-77
2021/07/27 01:13:49;;;;;;;3.00;1.80;;;15.20;91.30;;;;;;4961596;28;20039;-76
2021/07/27 01:16:15;;;;;;;5.15;1.98;;;15.20;91.50;;;;;;4959990;28;20482;-76
2021/07/27 01:18:53;;;;;;;2.10;1.90;;;15.10;91.50;;;;;;4964776;28;20022;-77
2021/07/27 01:37:56;;;;;;;4.32;2.30;;;15.00;91.90;;;;;;4964044;28;20044;-77
2021/07/27 01:40:24;;;;;;;3.03;2.20;;;14.90;91.90;;;;;;4969315;28;20029;-76
2021/07/27 01:42:50;;;;;;;;;;;14.90;92.20;;;;;;4973149;28;20615;-77
2021/07/27 01:45:17;;;;;;;5.20;2.10;;;14.90;92.10;;;;;;4970220;28;19910;-77
2021/07/27 01:47:42;;;;;;;3.33;1.90;;;14.90;91.90;;;;;;4966782;28;20037;-77
2021/07/27 01:50:08;;;;;;;3.08;2.10;;;14.90;91.80;;;;;;4965034;28;20034;-77
2021/07/27 01:52:34;;;;;;;2.40;1.63;;;14.90;91.80;;;;;;4966012;28;20027;-76
2021/07/27 01:55:07;;;;;;;2.55;1.58;;;14.90;91.60;;;;;;4967718;28;20031;-77
2021/07/27 01:57:33;;;;;;;2.55;2.00;;;15.00;91.50;;;;;;4971049;28;20027;-77
2021/07/27 01:59:58;;;;;;;3.53;1.83;;;15.00;91.50;;;;;;4967487;28;20018;-77
2021/07/27 02:02:25;;;;;;;1.73;1.60;;;15.00;91.20;;;;;;4937064;28;20063;-75
2021/07/27 02:04:52;;;;;;;4.40;1.73;;;14.90;91.30;;;;;;4944406;28;20041;-77
2021/07/27 02:07:17;;;;;;;2.90;2.10;;;14.90;91.50;;;;;;4939228;28;20139;-76
2021/07/27 02:09:45;;;;;;;2.38;1.60;;;14.90;91.50;;;;;;4947491;28;20118;-77
2021/07/27 02:12:22;;;;;;;2.47;1.90;;;15.00;91.40;;;;;;4939127;28;20057;-77
2021/07/27 02:17:30;;;;;;;3.05;2.10;;;14.80;91.60;;;;;;4945375;28;20118;-77
2021/07/27 02:19:55;;;;;;;4.63;2.50;;;14.90;91.70;;;;;;4949811;28;20107;-77
2021/07/27 02:22:21;;;;;;;3.08;2.45;;;14.80;91.60;;;;;;4962678;28;20035;-76
2021/07/27 02:24:47;;;;;;;3.33;2.40;;;14.90;91.80;;;;;;4939501;28;20023;-76
2021/07/27 02:27:13;;;;;;;4.43;2.55;;;14.80;92.10;;;;;;4939277;28;20058;-76
2021/07/27 02:29:38;;;;;;;5.05;3.08;;;14.70;92.10;;;;;;4951826;28;20027;-77
2021/07/27 02:32:04;;;;;;;5.90;3.10;;;14.60;92.20;;;;;;4942741;28;20379;-77
2021/07/27 02:34:32;;;;;;;4.78;2.85;;;14.70;92.30;;;;;;4947702;28;20043;-76
2021/07/27 02:36:58;;;;;;;5.22;2.70;;;14.60;92.30;;;;;;4948343;28;20029;-77
2021/07/27 02:39:24;;;;;;;4.03;2.65;;;14.60;92.20;;;;;;4946597;28;20498;-75
2021/07/27 02:41:50;;;;;;;3.67;2.15;;;14.50;92.50;;;;;;4946514;28;20027;-77
2021/07/27 02:44:15;;;;;;;2.88;2.55;;;14.50;92.90;;;;;;4941405;28;20174;-77
2021/07/27 02:46:41;;;;;;;3.15;2.42;;;14.40;92.80;;;;;;4944641;28;21044;-76
2021/07/27 02:49:07;;;;;;;3.17;2.42;;;14.40;93.00;;;;;;4947480;28;20035;-77
2021/07/27 02:51:32;;;;;;;5.20;2.60;;;14.30;92.80;;;;;;4943667;28;20027;-77
2021/07/27 02:53:58;;;;;;;3.33;2.65;;;14.30;93.00;;;;;;4945490;28;20082;-76
2021/07/27 02:56:24;;;;;;;3.58;2.67;;;14.30;93.00;;;;;;4940265;28;20019;-77
2021/07/27 02:58:50;;;;;;;3.25;2.60;;;14.30;92.80;;;;;;4948437;28;20171;-76
2021/07/27 03:01:16;;;;;;;3.97;2.58;;;14.30;92.70;;;;;;4950973;28;20040;-77
2021/07/27 03:03:41;;;;;;;4.80;2.40;;;14.20;92.80;;;;;;4965584;28;20039;-77
2021/07/27 03:06:08;;;;;;;4.00;2.65;;;14.20;92.80;;;;;;4960937;28;20106;-76
2021/07/27 03:11:13;;;;;;;3.40;2.47;;;14.20;92.80;;;;;;4966317;28;20050;-76
2021/07/27 03:13:39;;;;;;;5.70;2.90;;;14.30;92.90;;;;;;4964158;28;20030;-76
2021/07/27 03:16:05;;;;;;;5.40;3.00;;;14.30;93.10;;;;;;4968881;28;20077;-77
2021/07/27 03:18:30;;;;;;;3.67;2.10;;;14.40;92.90;;;;;;4969219;28;20489;-76
2021/07/27 03:20:56;;;;;;;3.25;2.05;;;14.50;92.30;;;;;;4961960;28;20026;-76
2021/07/27 03:23:28;;;;;;;3.42;2.20;;;14.50;92.00;;;;;;4958127;28;20490;-76
2021/07/27 03:25:54;;;;;;;3.03;2.20;;;14.40;91.50;;;;;;4965317;28;20089;-77
2021/07/27 03:28:19;;;;;;;2.70;2.10;;;14.30;91.90;;;;;;4967466;28;20031;-77
2021/07/27 03:30:45;;;;;;;4.70;2.53;;;14.40;91.80;;;;;;4967270;28;20043;-77
2021/07/27 03:33:14;;;;;;;3.58;2.47;;;14.40;91.90;;;;;;4967650;28;20034;-77
2021/07/27 03:35:40;;;;;;;5.38;2.33;;;14.40;91.90;;;;;;4961796;28;20031;-77
2021/07/27 03:38:06;;;;;;;3.38;2.75;;;14.50;91.90;;;;;;4965212;28;20428;-77
2021/07/27 03:40:33;;;;;;;3.00;2.42;;;14.40;91.90;;;;;;4963867;28;20022;-76
2021/07/27 03:42:59;;;;;;;2.72;2.08;;;14.40;91.60;;;;;;4962922;28;20027;-77
2021/07/27 03:45:25;;;;;;;3.03;2.13;;;14.40;91.50;;;;;;4971314;28;20042;-76
2021/07/27 03:47:50;;;;;;;8.50;2.50;;;14.40;91.50;;;;;;4969227;28;20113;-77
2021/07/27 03:50:16;;;;;;;3.13;2.25;;;14.40;91.80;;;;;;4963483;28;20035;-77
2021/07/27 03:52:42;;;;;;;3.72;2.22;;;14.30;92.20;;;;;;4959882;28;20038;-76
2021/07/27 03:55:08;;;;;;;3.20;2.20;;;14.20;92.40;;;;;;4966415;28;20397;-77
2021/07/27 03:57:34;;;;;;;2.38;2.15;;;14.20;92.30;;;;;;4959188;28;20027;-76
2021/07/27 03:59:59;;;;;;;2.75;2.03;;;14.20;92.30;;;;;;4965026;28;20409;-76
2021/07/27 04:02:25;;;;;;;4.22;2.33;;;14.20;92.40;;;;;;4964198;28;20045;-76
2021/07/27 04:04:51;;;;;;;5.28;2.38;;;14.20;92.50;;;;;;4953135;28;20133;-76
2021/07/27 04:07:17;;;;;;;3.55;2.30;;;14.10;92.60;;;;;;4967349;28;20135;-76
2021/07/27 04:09:42;;;;;;;3.40;2.25;;;14.10;92.90;;;;;;4964288;28;20034;-76
2021/07/27 04:12:08;;;;;;;3.28;2.30;;;14.20;92.80;;;;;;4959533;28;20073;-76
2021/07/27 04:14:35;;;;;;;4.20;3.33;;;14.20;92.60;;;;;;4968302;28;20030;-77
2021/07/27 04:17:00;;;;;;;3.05;2.47;;;14.20;92.50;;;;;;4966754;28;20033;-77
2021/07/27 04:19:26;;;;;;;3.13;2.47;;;14.30;92.70;;;;;;4957677;28;20023;-76
2021/07/27 04:21:52;;;;;;;4.75;3.20;;;14.30;92.90;;;;;;4960285;28;20607;-77
2021/07/27 04:24:18;;;;;;;3.97;3.05;;;14.30;93.10;;;;;;4974565;28;20075;-77
2021/07/27 04:26:48;;;;;;;4.25;2.83;;;14.40;93.40;;;;;;4967236;28;20430;-76
2021/07/27 04:29:17;;;;;;;5.38;3.08;;;14.50;93.40;;;;;;4965503;28;20027;-77
2021/07/27 04:31:45;;;;;;;3.72;2.90;;;14.50;93.20;;;;;;4946590;28;20043;-77
2021/07/27 04:34:10;;;;;;;4.53;2.80;;;14.70;93.10;;;;;;4931535;28;20581;-77
2021/07/27 04:36:36;;;;;;;3.72;2.67;;;14.70;93.10;;;;;;4942020;28;20039;-77
2021/07/27 04:39:02;;;;;;;3.53;2.75;;;14.80;93.00;;;;;;4943390;28;20094;-77
2021/07/27 04:41:27;;;;;;;5.65;2.80;;;14.90;92.80;;;;;;4945073;28;20579;-77
2021/07/27 04:43:53;;;;;;;3.83;2.60;;;14.90;92.50;;;;;;4949401;28;20031;-77
2021/07/27 04:46:19;;;;;;;5.25;3.13;;;14.90;92.30;;;;;;4947628;28;20091;-77
2021/07/27 04:48:44;;;;;;;3.55;2.67;;;15.00;92.10;;;;;;4947749;28;20046;-77
2021/07/27 04:51:10;;;;;;;2.88;2.65;;;15.00;92.10;;;;;;4938686;28;20503;-77
2021/07/27 04:53:37;;;;;;;3.58;2.97;;;15.00;92.20;;;;;;4950060;28;20035;-76
2021/07/27 04:56:04;;;;;;;3.80;2.90;;;15.10;92.30;;;;;;4947102;28;20055;-77
2021/07/27 04:58:30;;;;;;;3.60;2.63;;;15.10;92.10;;;;;;4941015;28;20042;-77
2021/07/27 05:01:02;;;;;;;6.40;2.95;;;15.10;92.00;;;;;;4949267;28;20129;-76
2021/07/27 05:03:29;;;;;;;5.32;2.97;;;15.10;92.10;;;;;;4960842;28;20027;-76
2021/07/27 05:05:56;;;;;;;4.75;2.90;;;15.10;92.40;;;;;;4962112;28;20030;-76
2021/07/27 05:08:21;;;;;;;3.92;3.20;;;15.10;92.80;;;;;;4964326;28;20039;-75
2021/07/27 05:10:50;;;;;;;3.50;3.00;;;15.20;93.00;;;;;;4962737;28;20049;-76
2021/07/27 05:13:16;;;;;;;4.88;3.03;;;15.30;92.80;;;;;;4967475;28;20047;-77
2021/07/27 05:15:42;;;;;;;5.28;3.25;;;15.40;92.70;;;;;;4968376;28;20030;-77
2021/07/27 05:18:08;;;;;;;5.32;3.38;;;15.50;92.60;;;;;;4956936;28;20085;-76
2021/07/27 05:20:33;;;;;;;5.95;3.50;;;15.60;92.60;;;;;;4959658;28;20625;-75
2021/07/27 05:22:59;;;;;;;5.43;3.53;;;15.70;92.60;;;;;;4963921;28;20031;-77
2021/07/27 05:25:26;;;;;;;5.22;3.13;;;15.80;92.60;;;;;;4963322;28;20118;-76
2021/07/27 05:27:52;;;;;;;5.20;3.15;;;15.80;92.30;;;;;;4959114;28;20464;-76
2021/07/27 05:30:18;;;;;;;7.10;3.70;;;16.00;92.20;;;;;;4962387;28;20042;-76
2021/07/27 05:32:44;;;;;;;4.47;3.15;;;16.10;92.60;;;;;;4966376;28;20512;-76
2021/07/27 05:35:10;;;;;;;4.53;3.75;;;16.20;92.20;;;;;;4951954;28;20023;-76
2021/07/27 05:37:37;;;;;;;4.55;3.10;;;16.30;92.00;;;;;;4952754;28;20039;-77
2021/07/27 05:40:03;;;;;;;5.82;3.83;;;16.40;91.90;;;;;;4959777;28;20034;-76
2021/07/27 05:42:29;;;;;;;6.10;3.35;;;16.40;91.70;;;;;;4961674;28;20022;-77
2021/07/27 05:44:55;;;;;;;5.95;4.15;;;16.50;91.90;;;;;;4969886;28;20023;-77
2021/07/27 05:47:21;;;;;;;5.95;3.58;;;16.50;92.30;;;;;;4967173;28;20143;-77
2021/07/27 05:49:47;;;;;;;4.68;3.42;;;16.60;92.20;;;;;;4964199;28;20074;-76
2021/07/27 05:52:13;;;;;;;4.03;3.42;;;16.80;91.90;;;;;;4963669;28;20117;-77
2021/07/27 05:54:44;;;;;;;5.78;3.65;;;16.80;91.80;;;;;;4987148;28;20146;-76
2021/07/27 05:57:13;;;;;;;6.43;3.90;;;16.90;91.80;;;;;;4969940;28;20078;-77
2021/07/27 05:59:41;;;;;;;6.72;3.67;;;16.90;91.90;;;;;;4965999;28;20066;-76
2021/07/27 06:02:07;;;;;;;5.70;3.90;;;17.00;91.90;;;;;;4953948;28;20413;-76
2021/07/27 06:04:33;;;;;;;5.43;3.63;;;17.10;92.00;;;;;;4950008;28;20286;-77
2021/07/27 06:06:59;;;;;;;4.40;3.53;;;17.10;91.70;;;;;;4942344;28;20498;-77
2021/07/27 06:09:24;;;;;;;9.50;4.00;;;17.20;91.40;;;;;;4937311;28;20059;-77
2021/07/27 06:11:50;;;;;;;4.57;3.42;;;17.20;91.20;;;;;;4945420;28;20031;-76
2021/07/27 06:14:16;;;;;;;5.80;3.63;;;17.30;91.60;;;;;;4952828;28;20062;-77
2021/07/27 06:16:42;;;;;;;5.88;3.58;;;17.40;91.30;;;;;;4952352;28;20035;-75
2021/07/27 06:19:08;;;;;;;4.72;3.35;;;17.50;91.30;;;;;;4949747;28;20024;-76
2021/07/27 06:21:39;;;;;;;6.07;3.38;;;17.50;91.10;;;;;;4947568;28;20050;-76
2021/07/27 06:24:06;;;;;;;6.28;3.53;;;17.50;90.80;;;;;;4950446;28;20027;-78
2021/07/27 06:26:31;;;;;;;6.60;3.75;;;17.60;90.70;;;;;;4949857;28;20035;-76
2021/07/27 06:28:57;;;;;;;5.05;3.92;;;17.70;91.10;;;;;;4951930;28;20023;-77
2021/07/27 06:31:23;;;;;;;5.55;3.67;;;17.70;90.90;;;;;;4946586;28;20524;-76
2021/07/27 06:33:49;;;;;;;4.80;3.42;;;17.80;90.50;;;;;;4949137;28;20039;-76
2021/07/27 06:36:15;;;;;;;5.93;3.65;;;17.90;90.50;;;;;;4950392;28;20028;-78
2021/07/27 06:38:41;;;;;;;6.65;3.50;;;17.90;90.60;;;;;;4942376;28;21027;-77
2021/07/27 06:41:11;;;;;;;5.72;4.00;;;18.00;90.40;;;;;;4944860;28;20023;-77
2021/07/27 06:43:39;;;;;;;6.28;3.92;;;18.10;90.50;;;;;;4940641;28;20046;-76
2021/07/27 06:46:06;;;;;;;7.40;3.42;;;18.20;90.60;;;;;;4959451;28;20035;-77
2021/07/27 06:48:32;;;;;;;5.50;3.70;;;18.30;90.30;;;;;;4942180;28;20024;-77
2021/07/27 06:50:58;;;;;;;5.47;3.70;;;18.40;89.40;;;;;;4955056;28;20035;-77
2021/07/27 06:53:25;;;;;;;5.63;3.63;;;18.50;90.10;;;;;;4943693;28;20073;-77
2021/07/27 06:55:51;;;;;;;5.85;3.88;;;18.60;90.00;;;;;;4931783;28;20411;-77
2021/07/27 06:58:17;;;;;;;6.25;3.83;;;18.70;90.00;;;;;;4946392;28;20031;-77
2021/07/27 07:00:43;;;;;;;5.40;3.63;;;18.70;89.20;;;;;;4946663;28;20038;-77
2021/07/27 07:03:10;;;;;;;6.47;3.80;;;18.80;89.20;;;;;;4971584;28;20109;-79
2021/07/27 07:05:37;;;;;;;5.28;3.90;;;18.80;88.50;;;;;;4966343;28;20038;-78
2021/07/27 07:08:03;;;;;;;5.50;4.13;;;18.80;88.60;;;;;;4964718;28;20110;-77
2021/07/27 07:10:29;;;;;;;4.53;3.50;;;18.80;87.90;;;;;;4966143;28;20026;-78
2021/07/27 07:12:55;;;;;;;6.00;4.18;;;18.90;88.70;;;;;;4967507;28;20026;-77
2021/07/27 07:15:21;;;;;;;5.68;3.35;;;18.90;88.20;;;;;;4962745;28;20034;-78
2021/07/27 07:17:47;;;;;;;5.78;4.10;;;19.00;88.70;;;;;;4966576;28;20039;-77
2021/07/27 07:20:14;;;;;;;4.38;3.60;;;19.10;87.70;;;;;;4964641;28;20037;-78
2021/07/27 07:22:39;;;;;;;5.40;3.53;;;19.20;87.50;;;;;;4968322;28;20030;-77
2021/07/27 07:25:06;;;;;;;4.82;3.40;;;19.20;87.80;;;;;;4969282;28;20510;-77
2021/07/27 07:27:33;;;;;;;5.00;3.97;;;19.40;88.10;;;;;;4969899;28;20054;-77
2021/07/27 07:29:58;;;;;;;4.68;3.63;;;19.40;87.30;;;;;;4968578;28;20042;-78
2021/07/27 07:32:24;;;;;;;5.47;3.38;;;19.50;87.30;;;;;;4966248;28;20035;-77
2021/07/27 07:34:50;;;;;;;6.13;3.78;;;19.60;87.10;;;;;;4981073;28;20034;-78
2021/07/27 07:37:15;;;;;;;5.80;4.10;;;19.70;87.20;;;;;;4969928;28;20075;-77
2021/07/27 07:39:41;;;;;;;6.90;3.80;;;19.70;88.50;;;;;;4964685;28;20027;-76
2021/07/27 07:42:07;;;;;;;6.03;3.47;;;19.80;87.60;;;;;;4967973;28;20037;-76
2021/07/27 07:44:34;;;;;;;5.20;3.63;;;19.90;86.50;;;;;;4964676;28;20042;-77
2021/07/27 07:47:00;;;;;;;5.65;3.97;;;20.10;83.60;;;;;;4968342;28;20026;-77
2021/07/27 07:49:26;;;;;;;5.28;3.95;;;20.20;84.80;;;;;;4969243;28;20037;-77
2021/07/27 07:51:54;;;;;;;6.57;3.55;;;20.20;85.40;;;;;;4967657;28;20035;-76
2021/07/27 07:54:19;;;;;;;5.07;3.63;;;20.30;85.10;;;;;;4969248;28;20046;-77
2021/07/27 07:56:46;;;;;;;5.20;3.72;;;20.40;84.30;;;;;;4964802;28;20065;-77
2021/07/27 07:59:12;;;;;;;5.25;4.00;;;20.40;84.50;;;;;;4976537;28;20033;-77
2021/07/27 08:01:38;;;;;;;4.30;3.35;;;20.60;84.40;;;;;;4962615;28;20041;-76
2021/07/27 08:04:05;;;;;;;4.35;3.30;;;20.60;84.10;;;;;;4965397;28;20046;-77
2021/07/27 08:06:31;;;;;;;5.53;4.05;;;20.70;83.30;;;;;;4963626;28;20535;-77
2021/07/27 08:08:57;;;;;;;5.32;3.42;;;20.80;82.90;;;;;;4961561;28;20127;-77
2021/07/27 08:11:23;;;;;;;4.70;3.28;;;20.80;83.00;;;;;;4960384;28;20049;-77
2021/07/27 08:13:53;;;;;;;4.70;3.03;;;20.90;81.60;;;;;;4965329;28;20035;-78
2021/07/27 08:16:18;;;;;;;4.35;3.13;;;21.00;81.90;;;;;;4964466;28;20048;-77
2021/07/27 08:18:44;;;;;;;4.43;3.40;;;21.10;81.10;;;;;;4971039;28;20460;-77
2021/07/27 08:21:10;;;;;;;5.53;3.35;;;21.20;78.90;;;;;;4965601;28;20035;-76
2021/07/27 08:23:43;;;;;;;3.67;3.13;;;21.30;77.80;;;;;;4968858;28;20027;-77
2021/07/27 08:26:09;;;;;;;3.53;3.17;;;21.40;77.00;;;;;;4968038;28;20126;-77
2021/07/27 08:28:35;;;;;;;6.55;3.65;;;21.40;76.80;;;;;;4969775;28;20109;-76
2021/07/27 08:31:00;;;;;;;4.07;3.25;;;21.50;75.90;;;;;;4963734;28;20486;-77
2021/07/27 08:33:26;;;;;;;3.50;3.10;;;21.50;76.40;;;;;;4958732;28;20042;-77
2021/07/27 08:35:52;;;;;;;4.60;3.10;;;21.60;77.30;;;;;;4968189;28;20030;-76
2021/07/27 08:38:18;;;;;;;4.80;3.22;;;21.70;77.10;;;;;;4968048;28;20480;-77
2021/07/27 08:40:47;;;;;;;5.68;3.35;;;21.80;75.00;;;;;;4968013;28;20027;-77
2021/07/27 08:43:13;;;;;;;4.95;2.90;;;21.90;74.00;;;;;;4963191;28;20437;-76
2021/07/27 08:45:39;;;;;;;3.85;3.10;;;21.80;72.90;;;;;;4964752;28;20137;-77
2021/07/27 08:48:06;;;;;;;4.18;3.15;;;21.90;74.80;;;;;;4974001;28;20038;-76
2021/07/27 08:50:32;;;;;;;4.57;3.22;;;22.00;74.70;;;;;;4965204;28;20041;-77
2021/07/27 08:52:59;;;;;;;3.53;2.80;;;22.00;72.20;;;;;;4963193;28;20628;-77
2021/07/27 08:55:25;;;;;;;4.23;3.67;;;22.10;72.80;;;;;;4967004;28;20019;-78
2021/07/27 08:57:56;;;;;;;6.15;3.83;;;22.10;72.90;;;;;;4967669;28;20281;-78
2021/07/27 09:00:30;;;;;;;4.13;3.15;;;22.10;71.90;;;;;;4965783;28;20058;-77
2021/07/27 09:03:13;;;;;;;4.00;2.88;;;22.10;71.60;;;;;;4953590;28;20105;-78
2021/07/27 09:05:39;;;;;;;4.00;3.20;;;22.30;72.70;;;;;;4963461;28;20031;-78
2021/07/27 09:08:09;;;;;;;5.82;3.15;;;22.50;72.90;;;;;;4963849;28;20030;-77
2021/07/27 09:10:40;;;;;;;4.13;3.00;;;22.40;69.90;;;;;;4971690;28;20038;-76
2021/07/27 09:13:10;;;;;;;5.82;3.35;;;22.10;69.30;;;;;;4966150;28;20791;-76
2021/07/27 09:15:38;;;;;;;3.10;2.78;;;22.10;69.50;;;;;;4963474;28;20041;-77
2021/07/27 09:18:06;;;;;;;3.13;2.83;;;22.10;70.00;;;;;;4991522;28;20038;-77
2021/07/27 09:20:36;;;;;;;4.07;2.90;;;22.30;68.40;;;;;;4965778;28;20035;-77
2021/07/27 09:23:15;;;;;;;3.92;3.13;;;22.40;69.00;;;;;;4966788;28;20034;-76
2021/07/27 09:25:45;;;;;;;4.00;2.90;;;22.60;69.80;;;;;;4965521;28;20014;-77
2021/07/27 09:28:11;;;;;;;3.90;2.83;;;22.60;68.60;;;;;;4972111;28;20035;-77
2021/07/27 09:30:40;;;;;;;3.85;2.97;;;22.60;68.60;;;;;;4962006;28;20035;-77
2021/07/27 09:33:07;;;;;;;5.90;3.03;;;22.60;66.50;;;;;;4942747;28;20383;-76
2021/07/27 09:35:33;;;;;;;4.73;3.47;;;22.50;67.60;;;;;;4952609;28;20796;-78
2021/07/27 09:38:13;;;;;;;3.70;3.20;;;22.50;68.10;;;;;;4939524;28;20031;-78
2021/07/27 09:40:56;;;;;;;3.50;2.97;;;22.60;68.50;;;;;;4940260;28;20074;-78
2021/07/27 09:43:24;;;;;;;4.60;3.30;;;22.70;66.60;;;;;;4941015;28;20055;-78
2021/07/27 09:45:54;;;;;;;;;;;22.80;67.30;;;;;;4943185;28;20498;-78
2021/07/27 09:48:23;;;;;;;4.10;3.15;;;22.90;67.50;;;;;;4945922;28;19933;-78
2021/07/27 09:50:53;;;;;;;3.67;3.00;;;23.00;67.90;;;;;;4930632;28;20038;-78
2021/07/27 09:53:20;;;;;;;3.35;2.88;;;22.80;65.90;;;;;;4939561;28;20042;-78
2021/07/27 09:55:46;;;;;;;4.93;3.30;;;22.80;66.10;;;;;;4932440;28;20027;-78
2021/07/27 09:58:12;;;;;;;4.65;2.90;;;22.80;66.70;;;;;;4944786;28;20110;-77
2021/07/27 10:00:43;;;;;;;3.20;2.90;;;22.90;66.70;;;;;;4949601;28;20121;-77
2021/07/27 10:03:12;;;;;;;5.15;2.97;;;22.70;63.50;;;;;;4963732;28;20146;-77
2021/07/27 10:05:38;;;;;;;6.70;3.00;;;22.50;64.30;;;;;;4966529;28;20046;-78
2021/07/27 10:08:04;;;;;;;4.47;3.35;;;22.50;63.70;;;;;;4966643;28;20404;-77
2021/07/27 10:10:49;;;;;;;3.83;3.00;;;22.50;64.90;;;;;;4967750;28;20023;-77
2021/07/27 10:13:17;;;;;;;4.28;3.28;;;22.50;63.40;;;;;;4965353;28;20061;-77
2021/07/27 10:15:44;;;;;;;4.13;3.13;;;22.50;65.00;;;;;;4962555;28;20027;-77
2021/07/27 10:18:11;;;;;;;;;;;22.60;66.50;;;;;;4968734;28;20081;-77
2021/07/27 10:20:37;;;;;;;3.88;3.03;;;22.60;66.20;;;;;;4965479;28;20357;-78
2021/07/27 10:23:16;;;;;;;4.10;3.15;;;22.70;66.40;;;;;;4966528;28;20035;-77
2021/07/27 10:25:53;;;;;;;6.75;2.88;;;22.80;65.10;;;;;;4965269;28;20155;-78
2021/07/27 10:28:23;;;;;;;3.97;2.92;;;22.90;65.60;;;;;;4968227;28;20027;-78
2021/07/27 10:30:49;;;;;;;4.75;2.83;;;22.90;64.70;;;;;;4964136;28;20035;-78
2021/07/27 10:33:14;;;;;;;4.15;2.90;;;23.00;65.80;;;;;;4969404;28;20396;-78
2021/07/27 10:35:41;;;;;;;4.47;2.85;;;23.10;65.00;;;;;;4965932;28;20035;-77
2021/07/27 10:38:07;;;;;;;5.20;3.17;;;23.10;64.30;;;;;;4967946;28;20382;-77
2021/07/27 10:40:33;;;;;;;4.38;3.20;;;23.00;63.60;;;;;;4958381;28;20026;-76
2021/07/27 10:42:59;;;;;;;5.05;2.85;;;22.90;64.50;;;;;;4963089;28;20394;-77
2021/07/27 10:45:26;;;;;;;3.33;2.90;;;23.00;65.30;;;;;;4969309;28;20034;-76
2021/07/27 10:47:53;;;;;;;6.40;3.08;;;23.10;66.00;;;;;;4971090;28;20027;-76
2021/07/27 10:50:28;;;;;;;5.57;2.83;;;23.10;60.80;;;;;;4971783;28;20117;-78
2021/07/27 10:53:17;;;;;;;4.15;3.05;;;23.20;61.30;;;;;;4969140;28;20440;-77
2021/07/27 10:55:49;;;;;;;4.10;3.05;;;23.40;62.30;;;;;;4965634;28;20033;-77
2021/07/27 10:58:20;;;;;;;8.55;3.08;;;23.50;61.60;;;;;;4966769;28;20042;-77
2021/07/27 11:00:45;;;;;;;2.97;2.67;;;23.50;61.60;;;;;;4964770;28;20074;-77
2021/07/27 11:03:11;;;;;;;3.10;2.80;;;23.50;61.60;;;;;;4967924;28;20402;-77
2021/07/27 11:05:37;;;;;;;3.95;2.75;;;23.60;61.00;;;;;;4948713;28;20391;-77
2021/07/27 11:08:03;;;;;;;6.43;3.00;;;23.50;53.60;;;;;;4943554;28;20078;-77
2021/07/27 11:10:33;;;;;;;9.27;3.22;;;23.50;57.10;;;;;;4966024;28;20055;-77
2021/07/27 11:12:59;;;;;;;3.53;2.63;;;23.60;57.80;;;;;;4970484;28;20071;-77
2021/07/27 11:15:29;;;;;;;4.25;2.83;;;23.70;58.20;;;;;;4972472;28;20057;-79
2021/07/27 11:18:02;;;;;;;3.80;3.20;;;23.80;58.50;;;;;;4959247;28;20027;-78
2021/07/27 11:20:33;;;;;;;4.18;3.08;;;23.80;59.80;;;;;;4974937;28;20544;-77
2021/07/27 11:23:18;;;;;;;3.58;2.85;;;23.90;57.60;;;;;;4956618;28;20031;-77
2021/07/27 11:25:53;;;;;;;4.80;2.80;;;23.90;59.00;;;;;;4982335;28;20401;-77
2021/07/27 11:28:19;;;;;;;4.03;3.08;;;23.90;58.30;;;;;;4970106;28;20050;-76
2021/07/27 11:30:46;;;;;;;6.55;3.30;;;24.00;60.40;;;;;;4965821;28;20046;-77
2021/07/27 11:33:12;;;;;;;4.10;3.00;;;24.10;59.00;;;;;;4961617;28;20475;-76
2021/07/27 11:35:43;;;;;;;4.15;3.28;;;24.10;60.10;;;;;;4962356;28;20031;-77
2021/07/27 11:38:13;;;;;;;5.07;3.30;;;24.10;61.80;;;;;;4968548;28;20069;-77
2021/07/27 11:40:38;;;;;;;4.45;3.22;;;24.00;60.40;;;;;;4966157;28;20030;-77
2021/07/27 11:43:13;;;;;;;4.53;3.10;;;24.00;59.70;;;;;;4958715;28;20090;-78
2021/07/27 11:45:41;;;;;;;3.95;3.20;;;24.00;60.80;;;;;;4955607;28;20034;-77
2021/07/27 11:48:08;;;;;;;5.03;3.33;;;24.00;60.90;;;;;;4970391;28;20042;-77
2021/07/27 11:50:43;;;;;;;4.10;3.10;;;24.00;60.90;;;;;;4967508;28;20034;-76
2021/07/27 11:53:21;;;;;;;3.63;3.20;;;24.00;61.50;;;;;;4968273;28;20396;-76
2021/07/27 11:55:47;;;;;;;4.82;3.20;;;24.10;62.10;;;;;;4970013;28;20044;-74
2021/07/27 11:58:23;;;;;;;3.58;3.08;;;24.20;60.40;;;;;;4951671;28;20039;-76
2021/07/27 12:00:55;;;;;;;3.70;2.92;;;24.30;62.60;;;;;;4951894;28;20394;-77
2021/07/27 12:03:21;;;;;;;3.70;3.00;;;24.30;63.10;;;;;;4937396;28;20666;-77
2021/07/27 12:05:47;;;;;;;5.60;3.38;;;24.40;61.40;;;;;;4941083;28;20030;-77
2021/07/27 12:08:12;;;;;;;4.40;3.00;;;24.40;59.60;;;;;;4944525;28;20054;-77
2021/07/27 12:10:38;;;;;;;5.43;3.40;;;24.40;59.90;;;;;;4942300;28;20093;-77
2021/07/27 12:13:05;;;;;;;4.05;3.17;;;24.50;60.30;;;;;;4949353;28;20062;-77
2021/07/27 12:15:30;;;;;;;5.18;3.42;;;24.50;60.00;;;;;;4946590;28;20133;-78
2021/07/27 12:17:56;;;;;;;4.38;2.80;;;24.40;58.90;;;;;;4944818;28;20082;-77
2021/07/27 12:20:22;;;;;;;6.07;3.00;;;24.50;58.00;;;;;;4948455;28;20019;-77
2021/07/27 12:22:48;;;;;;;3.85;3.15;;;24.30;58.90;;;;;;4946220;28;20035;-77
2021/07/27 12:25:14;;;;;;;5.05;3.40;;;24.20;60.90;;;;;;4939946;28;20066;-77
2021/07/27 12:27:42;;;;;;;5.43;2.97;;;24.10;58.30;;;;;;4934770;28;20027;-77
2021/07/27 12:30:08;;;;;;;3.95;2.67;;;24.30;61.30;;;;;;4943997;28;20054;-77
2021/07/27 12:32:34;;;;;;;3.63;3.20;;;24.40;59.70;;;;;;4960851;28;20516;-77
2021/07/27 12:35:00;;;;;;;5.35;3.20;;;24.40;59.30;;;;;;4957452;28;20031;-77
2021/07/27 12:37:25;;;;;;;3.08;2.78;;;24.50;61.20;;;;;;4960459;28;20118;-78
2021/07/27 12:39:51;;;;;;;3.67;3.03;;;24.50;60.90;;;;;;4965676;28;20402;-78
2021/07/27 12:42:16;;;;;;;3.30;2.72;;;24.50;60.70;;;;;;4967026;28;20030;-78
2021/07/27 12:44:42;;;;;;;4.28;3.15;;;24.50;58.90;;;;;;4968160;28;20058;-78
2021/07/27 12:47:08;;;;;;;3.70;2.90;;;24.50;60.10;;;;;;4961797;28;20035;-78
2021/07/27 12:49:35;;;;;;;2.95;2.60;;;24.60;58.60;;;;;;4967355;28;20062;-78
2021/07/27 12:52:07;;;;;;;3.95;2.80;;;24.60;57.70;;;;;;4967488;28;20081;-76
2021/07/27 12:54:33;;;;;;;3.75;2.67;;;24.70;58.50;;;;;;4970394;28;20046;-77
2021/07/27 12:57:00;;;;;;;3.88;2.95;;;24.60;58.70;;;;;;4968030;28;20667;-77
2021/07/27 12:59:25;;;;;;;4.70;2.45;;;24.60;57.70;;;;;;4967415;28;20114;-77
2021/07/27 13:01:51;;;;;;;4.53;2.78;;;24.60;58.90;;;;;;4953305;28;20496;-76
2021/07/27 13:04:16;;;;;;;3.10;2.80;;;24.50;58.60;;;;;;4963034;28;20075;-77
2021/07/27 13:06:42;;;;;;;3.83;2.70;;;24.60;60.90;;;;;;4969775;28;20034;-77
2021/07/27 13:09:08;;;;;;;6.05;3.08;;;24.70;61.50;;;;;;4968599;28;20027;-76